Time;durP1;ratioP1;P1;durP2;ratioP2;P2;SDS_P1;SDS_P2;PMS_P1;PMS_P2;Temp;Humidity;BMP_temperature;BMP_pressure;BME280_temperature;BME280_humidity;BME280_pressure;Samples;Min_cycle;Max_cycle;Signal;HPM_P1;HPM_P2
2021/06/03 00:02:01;;;;;;;7.82;5.50;;;384.50;1740.80;;;;;;5053536;28;20100;-79
2021/06/03 00:04:26;;;;;;;6.15;5.05;;;384.50;1740.80;;;;;;5054570;28;20024;-78
2021/06/03 00:06:52;;;;;;;9.73;5.32;;;384.50;1740.80;;;;;;5053798;28;20397;-78
2021/06/03 00:09:18;;;;;;;14.27;5.32;;;384.50;1766.40;;;;;;5053258;28;20040;-78
2021/06/03 00:11:45;;;;;;;6.53;5.93;;;384.50;1766.40;;;;;;5053460;28;20428;-78
2021/06/03 00:14:11;;;;;;;9.57;4.88;;;384.50;1766.40;;;;;;5053545;28;20380;-78
2021/06/03 00:16:37;;;;;;;9.07;4.85;;;384.40;1766.40;;;;;;5053687;28;20028;-78
2021/06/03 00:19:06;;;;;;;8.45;5.28;;;384.50;1766.40;;;;;;5053678;28;20057;-77
2021/06/03 00:21:33;;;;;;;5.82;4.90;;;384.40;1792.00;;;;;;5053621;28;20025;-78
2021/06/03 00:23:59;;;;;;;11.15;5.22;;;384.30;1766.40;;;;;;5055070;28;20388;-79
2021/06/03 00:26:25;;;;;;;10.15;5.03;;;384.30;1766.40;;;;;;5055212;28;20032;-78
2021/06/03 00:28:51;;;;;;;5.85;5.15;;;384.20;1766.40;;;;;;5056591;28;20021;-77
2021/06/03 00:31:16;;;;;;;7.97;4.78;;;384.20;1766.40;;;;;;5069119;28;20039;-77
2021/06/03 00:33:42;;;;;;;7.35;5.28;;;384.20;1792.00;;;;;;5054059;28;20053;-78
2021/06/03 00:36:09;;;;;;;5.80;4.57;;;384.20;1792.00;;;;;;5063620;28;20025;-78
2021/06/03 00:38:36;;;;;;;5.55;4.35;;;384.20;1792.00;;;;;;5055401;28;20485;-77
2021/06/03 00:41:03;;;;;;;6.13;5.00;;;384.20;1792.00;;;;;;5056796;28;20025;-77
2021/06/03 00:43:30;;;;;;;8.00;4.70;;;384.20;1792.00;;;;;;5055345;28;20091;-76
2021/06/03 00:45:56;;;;;;;11.25;5.63;;;384.10;1792.00;;;;;;5055622;28;20021;-77
2021/06/03 00:48:22;;;;;;;11.02;5.30;;;384.10;1766.40;;;;;;5054217;28;20415;-77
2021/06/03 00:50:50;;;;;;;7.30;4.80;;;384.10;1792.00;;;;;;5053029;28;20031;-77
2021/06/03 00:53:17;;;;;;;5.13;4.63;;;384.00;1792.00;;;;;;5054098;28;20032;-76
2021/06/03 00:55:47;;;;;;;6.25;5.65;;;384.00;1792.00;;;;;;5052594;28;20396;-78
2021/06/03 00:58:13;;;;;;;12.23;5.22;;;384.00;1792.00;;;;;;5052780;28;20028;-77
2021/06/03 01:00:39;;;;;;;10.30;5.38;;;384.00;1792.00;;;;;;5054079;28;20477;-77
2021/06/03 01:03:06;;;;;;;5.47;5.03;;;359.30;1792.00;;;;;;5052450;28;20028;-77
2021/06/03 01:05:42;;;;;;;6.53;5.00;;;359.30;1792.00;;;;;;5052747;28;20017;-77
2021/06/03 01:08:17;;;;;;;8.80;5.30;;;359.30;1792.00;;;;;;5052818;28;20022;-77
2021/06/03 01:10:54;;;;;;;8.38;4.65;;;359.30;1817.60;;;;;;5053364;28;20020;-76
2021/06/03 01:13:41;;;;;;;6.68;5.45;;;359.30;1792.00;;;;;;5052422;28;20033;-77
2021/06/03 01:16:08;;;;;;;5.78;5.15;;;359.20;1817.60;;;;;;5052565;28;20253;-78
2021/06/03 01:18:38;;;;;;;6.47;5.00;;;359.20;1792.00;;;;;;5052635;28;20163;-78
2021/06/03 01:21:09;;;;;;;7.20;5.50;;;359.20;1792.00;;;;;;5053344;28;20025;-78
2021/06/03 01:23:42;;;;;;;;;;;359.20;1792.00;;;;;;5054341;28;20028;-78
2021/06/03 01:26:08;;;;;;;11.57;5.28;;;359.20;1817.60;;;;;;5053601;28;19912;-78
2021/06/03 01:28:35;;;;;;;8.38;5.30;;;359.10;1817.60;;;;;;5053575;28;20376;-78
2021/06/03 01:31:03;;;;;;;7.18;5.05;;;359.10;1817.60;;;;;;5052348;28;20124;-77
2021/06/03 01:33:31;;;;;;;6.45;5.03;;;359.10;1817.60;;;;;;5052290;28;20049;-77
2021/06/03 01:36:00;;;;;;;6.78;4.80;;;359.10;1792.00;;;;;;5052417;28;20052;-78
2021/06/03 01:38:32;;;;;;;9.50;5.75;;;359.10;1817.60;;;;;;5052175;28;20032;-80
2021/06/03 01:40:59;;;;;;;5.82;5.15;;;359.10;1792.00;;;;;;5053457;28;20059;-77
2021/06/03 01:43:28;;;;;;;6.78;5.50;;;359.10;1792.00;;;;;;5051688;28;20083;-78
2021/06/03 01:45:55;;;;;;;7.97;5.10;;;359.00;1792.00;;;;;;5052161;28;20754;-78
2021/06/03 01:48:21;;;;;;;9.18;6.20;;;359.10;1792.00;;;;;;5053439;28;20785;-78
2021/06/03 01:50:50;;;;;;;8.32;5.88;;;359.10;1792.00;;;;;;5053453;28;20033;-78
2021/06/03 01:53:18;;;;;;;9.32;5.80;;;359.00;1792.00;;;;;;5051337;28;20029;-76
2021/06/03 01:55:44;;;;;;;8.88;5.20;;;359.00;1792.00;;;;;;5053430;28;20024;-76
2021/06/03 01:58:11;;;;;;;12.43;5.72;;;359.00;1792.00;;;;;;5052234;28;20025;-78
2021/06/03 02:00:37;;;;;;;12.32;6.90;;;359.00;1792.00;;;;;;5051997;28;20017;-77
2021/06/03 02:03:03;;;;;;;5.72;5.15;;;359.00;1792.00;;;;;;5052040;28;20047;-78
2021/06/03 02:05:29;;;;;;;9.52;6.15;;;358.90;1792.00;;;;;;5052183;28;20108;-78
2021/06/03 02:07:55;;;;;;;10.63;6.28;;;358.90;1817.60;;;;;;5053233;28;20025;-78
2021/06/03 02:10:22;;;;;;;6.53;5.53;;;358.90;1817.60;;;;;;5053384;28;20485;-78
2021/06/03 02:13:26;;;;;;;6.85;6.22;;;358.90;1792.00;;;;;;5053154;28;20120;-78
2021/06/03 02:16:01;;;;;;;8.35;6.80;;;358.90;1817.60;;;;;;5053102;28;20120;-77
2021/06/03 02:18:49;;;;;;;10.20;5.88;;;358.90;1792.00;;;;;;5053160;28;20029;-79
2021/06/03 02:21:17;;;;;;;10.15;6.63;;;358.80;1817.60;;;;;;5052779;28;20075;-79
2021/06/03 02:23:46;;;;;;;9.57;6.60;;;358.80;1817.60;;;;;;5052947;28;20501;-78
2021/06/03 02:26:14;;;;;;;8.82;6.72;;;358.80;1817.60;;;;;;5053056;28;20037;-78
2021/06/03 02:28:42;;;;;;;7.05;6.40;;;358.80;1817.60;;;;;;5050553;28;20396;-79
2021/06/03 02:31:09;;;;;;;8.10;6.22;;;358.80;1792.00;;;;;;5051546;28;20025;-79
2021/06/03 02:33:35;;;;;;;7.63;6.45;;;358.80;1817.60;;;;;;5055243;28;20128;-79
2021/06/03 02:36:01;;;;;;;8.07;7.28;;;358.70;1817.60;;;;;;5056784;28;20024;-77
2021/06/03 02:38:29;;;;;;;12.20;7.22;;;358.70;1817.60;;;;;;5055574;28;20063;-77
2021/06/03 02:41:00;;;;;;;11.95;7.10;;;358.70;1843.20;;;;;;5056926;28;20025;-77
2021/06/03 02:43:26;;;;;;;8.32;6.75;;;358.70;1843.20;;;;;;5055402;28;20473;-77
2021/06/03 02:45:52;;;;;;;12.18;7.63;;;358.70;1817.60;;;;;;5056593;28;20033;-78
2021/06/03 02:48:18;;;;;;;15.30;7.72;;;358.70;1817.60;;;;;;5056987;28;20021;-79
2021/06/03 02:50:44;;;;;;;9.98;7.03;;;358.70;1817.60;;;;;;5055272;28;20072;-78
2021/06/03 02:53:11;;;;;;;10.35;7.35;;;358.70;1817.60;;;;;;5054708;28;20060;-78
2021/06/03 02:55:37;;;;;;;9.23;7.72;;;358.70;1843.20;;;;;;5055230;28;20025;-78
2021/06/03 02:58:03;;;;;;;15.07;8.15;;;358.70;1843.20;;;;;;5056490;28;20024;-78
2021/06/03 03:00:32;;;;;;;11.95;7.63;;;358.70;1843.20;;;;;;5056336;28;20096;-78
2021/06/03 03:03:00;;;;;;;10.55;6.95;;;358.70;1843.20;;;;;;5056573;28;20028;-78
2021/06/03 03:05:26;;;;;;;10.13;7.88;;;358.70;1868.80;;;;;;5054895;28;20049;-78
2021/06/03 03:07:51;;;;;;;10.18;7.55;;;358.60;1843.20;;;;;;5056165;28;20063;-78
2021/06/03 03:10:25;;;;;;;10.70;6.97;;;358.60;1868.80;;;;;;5056162;28;20112;-79
2021/06/03 03:12:50;;;;;;;10.13;7.75;;;358.60;1868.80;;;;;;5037775;28;20397;-78
2021/06/03 03:15:17;;;;;;;9.63;7.07;;;358.60;1843.20;;;;;;5054282;28;20087;-78
2021/06/03 03:17:44;;;;;;;12.57;8.35;;;358.50;1868.80;;;;;;5054104;28;20051;-77
2021/06/03 03:20:11;;;;;;;16.35;7.85;;;358.60;1868.80;;;;;;5054467;28;20053;-78
2021/06/03 03:22:41;;;;;;;7.10;6.40;;;358.60;1868.80;;;;;;5054724;28;20017;-78
2021/06/03 03:25:09;;;;;;;9.90;7.40;;;358.60;1868.80;;;;;;5054589;28;20047;-78
2021/06/03 03:27:35;;;;;;;9.98;8.90;;;358.70;1868.80;;;;;;5054489;28;20029;-78
2021/06/03 03:30:02;;;;;;;13.25;7.18;;;358.70;1868.80;;;;;;5054565;28;20029;-78
2021/06/03 03:32:28;;;;;;;11.45;7.45;;;358.70;1868.80;;;;;;5054203;28;20424;-78
2021/06/03 03:34:54;;;;;;;8.57;7.63;;;358.70;1868.80;;;;;;5055584;28;20083;-77
2021/06/03 03:37:19;;;;;;;10.38;7.90;;;358.70;1868.80;;;;;;5055965;28;20029;-77
2021/06/03 03:39:45;;;;;;;11.23;7.45;;;358.70;1868.80;;;;;;5055658;28;20066;-77
2021/06/03 03:42:11;;;;;;;10.15;7.47;;;358.80;1894.40;;;;;;5053988;28;20083;-77
2021/06/03 03:44:36;;;;;;;9.32;7.57;;;358.90;1868.80;;;;;;5053762;28;20044;-77
2021/06/03 03:47:03;;;;;;;10.95;7.28;;;358.90;1868.80;;;;;;5055728;28;20500;-78
2021/06/03 03:49:28;;;;;;;9.38;7.60;;;358.90;1868.80;;;;;;5055155;28;20357;-78
2021/06/03 03:51:54;;;;;;;13.50;6.78;;;359.00;1894.40;;;;;;5055425;28;20079;-77
2021/06/03 03:54:20;;;;;;;13.65;7.90;;;359.00;1868.80;;;;;;5053528;28;20020;-78
2021/06/03 03:56:45;;;;;;;11.95;7.30;;;359.10;1868.80;;;;;;5053574;28;20029;-77
2021/06/03 03:59:11;;;;;;;8.05;6.95;;;359.10;1868.80;;;;;;5054219;28;20028;-77
2021/06/03 04:01:37;;;;;;;16.48;7.05;;;359.10;1868.80;;;;;;5054930;28;20126;-78
2021/06/03 04:04:03;;;;;;;7.63;6.95;;;359.20;1868.80;;;;;;5054138;28;20468;-76
2021/06/03 04:06:28;;;;;;;9.88;6.63;;;359.20;1843.20;;;;;;5055009;28;20029;-78
2021/06/03 04:08:55;;;;;;;16.85;7.25;;;359.30;1868.80;;;;;;5053982;28;20408;-78
2021/06/03 04:11:24;;;;;;;10.40;6.88;;;359.30;1843.20;;;;;;5053536;28;20120;-78
2021/06/03 04:13:50;;;;;;;9.55;6.38;;;384.00;1843.20;;;;;;5052529;28;20171;-78
2021/06/03 04:16:16;;;;;;;10.07;6.65;;;384.00;1843.20;;;;;;5054524;28;20028;-78
2021/06/03 04:18:42;;;;;;;10.75;7.55;;;384.00;1843.20;;;;;;5054563;28;20035;-78
2021/06/03 04:21:08;;;;;;;7.63;6.78;;;384.10;1843.20;;;;;;5040939;28;20021;-78
2021/06/03 04:23:34;;;;;;;27.52;7.35;;;384.20;1843.20;;;;;;5034875;28;20498;-78
2021/06/03 04:25:59;;;;;;;14.10;6.85;;;384.30;1843.20;;;;;;5067456;28;20045;-78
2021/06/03 04:28:25;;;;;;;11.60;7.03;;;384.30;1843.20;;;;;;5033429;28;20026;-79
2021/06/03 04:30:51;;;;;;;10.70;6.30;;;384.40;1817.60;;;;;;5033513;28;20026;-81
2021/06/03 04:33:20;;;;;;;12.75;7.15;;;384.50;1792.00;;;;;;5033420;28;20132;-80
2021/06/03 04:35:47;;;;;;;10.05;6.55;;;384.50;1817.60;;;;;;5033821;28;20389;-80
2021/06/03 04:38:12;;;;;;;15.35;7.07;;;384.60;1817.60;;;;;;5034905;28;20021;-79
2021/06/03 04:40:38;;;;;;;10.10;6.15;;;384.70;1817.60;;;;;;5034707;28;20369;-79
2021/06/03 04:43:04;;;;;;;9.25;7.38;;;384.80;1817.60;;;;;;5033545;28;20389;-80
2021/06/03 04:45:34;;;;;;;8.32;7.30;;;384.80;1817.60;;;;;;5035730;28;20041;-80
2021/06/03 04:48:00;;;;;;;20.17;7.27;;;409.60;1843.20;;;;;;5035958;28;20022;-80
2021/06/03 04:50:26;;;;;;;9.82;5.93;;;409.70;1817.60;;;;;;5035600;28;20421;-80
2021/06/03 04:52:52;;;;;;;8.65;5.63;;;409.70;1817.60;;;;;;5034732;28;20025;-81
2021/06/03 04:55:23;;;;;;;14.40;8.18;;;409.70;1817.60;;;;;;5034869;28;20087;-81
2021/06/03 04:57:50;;;;;;;7.85;5.97;;;409.80;1843.20;;;;;;5034508;28;20032;-80
2021/06/03 05:00:19;;;;;;;12.38;5.88;;;409.90;1843.20;;;;;;5033033;28;20041;-80
2021/06/03 05:02:45;;;;;;;10.80;6.15;;;409.90;1817.60;;;;;;5034424;28;20017;-80
2021/06/03 05:05:12;;;;;;;14.30;5.28;;;410.00;1843.20;;;;;;5034204;28;20430;-79
2021/06/03 05:07:38;;;;;;;7.30;5.18;;;410.10;1817.60;;;;;;5033946;28;20087;-79
2021/06/03 05:10:05;;;;;;;13.13;5.82;;;410.20;1817.60;;;;;;5032698;28;20429;-79
2021/06/03 05:12:31;;;;;;;5.25;4.75;;;410.20;1817.60;;;;;;5044844;28;20033;-79
2021/06/03 05:14:57;;;;;;;9.10;5.00;;;410.40;1817.60;;;;;;5052694;28;20378;-80
2021/06/03 05:17:23;;;;;;;6.32;4.65;;;410.50;1817.60;;;;;;5052345;28;20029;-79
2021/06/03 05:19:49;;;;;;;10.27;4.70;;;435.20;1792.00;;;;;;5052357;28;20561;-79
2021/06/03 05:22:15;;;;;;;7.35;5.20;;;435.20;1766.40;;;;;;5053787;28;20057;-79
2021/06/03 05:24:41;;;;;;;6.75;5.10;;;435.30;1792.00;;;;;;5053708;28;20167;-80
2021/06/03 05:27:07;;;;;;;11.20;3.67;;;435.40;1766.40;;;;;;5053960;28;20025;-78
2021/06/03 05:29:33;;;;;;;7.15;3.88;;;435.90;1843.20;;;;;;5052555;28;20849;-80
2021/06/03 05:31:59;;;;;;;5.07;3.97;;;461.00;1817.60;;;;;;5052499;28;20049;-81
2021/06/03 05:34:25;;;;;;;16.25;5.03;;;461.30;1766.40;;;;;;5052238;28;20063;-79
2021/06/03 05:36:51;;;;;;;14.65;5.13;;;461.20;1715.20;;;;;;5052536;28;20033;-81
2021/06/03 05:39:16;;;;;;;8.27;4.95;;;461.20;1740.80;;;;;;5052410;28;20036;-81
2021/06/03 05:41:43;;;;;;;4.68;3.83;;;461.30;1715.20;;;;;;5053518;28;20427;-79
2021/06/03 05:44:11;;;;;;;7.20;3.45;;;461.40;1740.80;;;;;;5052170;28;20116;-79
2021/06/03 05:46:37;;;;;;;10.63;3.40;;;461.60;1689.60;;;;;;5053632;28;20029;-81
2021/06/03 05:49:04;;;;;;;8.00;3.63;;;461.60;1689.60;;;;;;5052530;28;20025;-81
2021/06/03 05:51:31;;;;;;;7.72;3.05;;;486.40;1664.00;;;;;;5052456;28;20124;-81
2021/06/03 05:53:57;;;;;;;5.22;3.60;;;486.40;1638.40;;;;;;5052197;28;20052;-81
2021/06/03 05:56:25;;;;;;;6.18;2.97;;;486.50;1612.80;;;;;;5053468;28;20028;-80
2021/06/03 05:58:54;;;;;;;8.77;3.25;;;486.60;1612.80;;;;;;5051800;28;20029;-79
2021/06/03 06:01:20;;;;;;;5.80;3.35;;;;;;;;;;5052513;28;20037;-80
2021/06/03 06:03:52;;;;;;;6.25;3.60;;;486.90;1587.20;;;;;;5051608;28;20033;-79
2021/06/03 06:06:24;;;;;;;3.95;3.30;;;486.90;1612.80;;;;;;5054782;28;20095;-79
2021/06/03 06:08:56;;;;;;;4.63;3.47;;;486.90;1587.20;;;;;;5057622;28;20021;-79
2021/06/03 06:11:24;;;;;;;6.35;2.80;;;487.10;1587.20;;;;;;5056165;28;20033;-80
2021/06/03 06:13:51;;;;;;;5.45;3.30;;;487.20;1587.20;;;;;;5056208;28;20037;-80
2021/06/03 06:19:39;;;;;;;4.97;3.00;;;512.00;1561.60;;;;;;5057771;28;20051;-80
2021/06/03 06:22:05;;;;;;;7.25;3.22;;;512.20;1536.00;;;;;;5058055;28;20017;-79
2021/06/03 06:24:31;;;;;;;7.18;2.88;;;512.30;1536.00;;;;;;5056412;28;20036;-80
2021/06/03 06:26:58;;;;;;;66.00;7.63;;;512.40;1510.40;;;;;;5056843;28;20100;-79
2021/06/03 06:29:24;;;;;;;55.53;6.53;;;512.30;1484.80;;;;;;5056678;28;20758;-78
2021/06/03 06:31:50;;;;;;;12.05;3.20;;;512.40;1484.80;;;;;;5055690;28;20044;-78
2021/06/03 06:34:15;;;;;;;21.98;4.07;;;512.40;1484.80;;;;;;5056413;28;20036;-78
2021/06/03 06:36:41;;;;;;;9.18;3.08;;;512.50;1484.80;;;;;;5054868;28;20480;-80
2021/06/03 06:39:07;;;;;;;6.55;2.78;;;512.40;1484.80;;;;;;5054905;28;20048;-77
2021/06/03 06:41:33;;;;;;;7.20;2.25;;;512.40;1433.60;;;;;;5057795;28;20027;-79
2021/06/03 06:43:58;;;;;;;5.82;2.30;;;512.50;1433.60;;;;;;5054509;28;20028;-79
2021/06/03 06:46:24;;;;;;;9.80;3.28;;;512.50;1459.20;;;;;;5054668;28;20036;-79
2021/06/03 06:48:50;;;;;;;8.38;2.03;;;512.60;1459.20;;;;;;5055434;28;20025;-78
2021/06/03 06:51:15;;;;;;;4.68;2.45;;;512.60;1433.60;;;;;;5055464;28;20039;-77
2021/06/03 06:53:41;;;;;;;4.68;1.90;;;512.70;1459.20;;;;;;5056733;28;20470;-79
2021/06/03 06:56:07;;;;;;;8.15;2.25;;;512.90;1408.00;;;;;;5055281;28;20033;-78
2021/06/03 06:58:33;;;;;;;2.60;2.10;;;512.90;1433.60;;;;;;5056335;28;20132;-78
2021/06/03 07:01:00;;;;;;;5.05;1.80;;;537.60;1408.00;;;;;;5055341;28;20495;-78
2021/06/03 07:03:26;;;;;;;9.55;2.03;;;537.70;1459.20;;;;;;5056738;28;20017;-78
2021/06/03 07:05:51;;;;;;;3.13;1.90;;;537.70;1408.00;;;;;;5055068;28;20028;-78
2021/06/03 07:08:18;;;;;;;3.60;1.88;;;537.70;1408.00;;;;;;5054661;28;20033;-79
2021/06/03 07:10:44;;;;;;;4.35;2.47;;;537.80;1408.00;;;;;;5055159;28;20377;-79
2021/06/03 07:13:10;;;;;;;4.30;1.55;;;537.90;1356.80;;;;;;5056188;28;20019;-79
2021/06/03 07:15:36;;;;;;;3.42;1.63;;;537.90;1331.20;;;;;;5055099;28;20116;-79
2021/06/03 07:18:02;;;;;;;3.30;2.15;;;538.10;1331.20;;;;;;5054019;28;20028;-79
2021/06/03 07:20:28;;;;;;;2.72;1.90;;;538.10;1305.60;;;;;;5054781;28;20531;-79
2021/06/03 07:23:00;;;;;;;5.03;1.70;;;538.10;1280.00;;;;;;5055225;28;20044;-78
2021/06/03 07:25:26;;;;;;;1.77;1.50;;;538.20;1331.20;;;;;;5054892;28;20032;-79
2021/06/03 07:27:53;;;;;;;4.45;1.40;;;538.20;1331.20;;;;;;5053899;28;20032;-78
2021/06/03 07:30:21;;;;;;;5.10;1.50;;;538.20;1254.40;;;;;;5054648;28;20029;-78
2021/06/03 07:32:47;;;;;;;6.53;1.60;;;538.20;1305.60;;;;;;5055349;28;20049;-78
2021/06/03 07:35:15;;;;;;;6.57;2.25;;;538.40;1305.60;;;;;;5055690;28;20029;-77
2021/06/03 07:37:43;;;;;;;1.45;1.35;;;538.40;1280.00;;;;;;5055687;28;20390;-78
2021/06/03 07:40:11;;;;;;;2.80;1.67;;;538.50;1305.60;;;;;;5055761;28;20021;-78
2021/06/03 07:42:39;;;;;;;3.08;1.50;;;563.20;1305.60;;;;;;5055605;28;20469;-78
2021/06/03 07:45:06;;;;;;;1.83;1.40;;;563.20;1305.60;;;;;;5046819;28;20029;-80
2021/06/03 07:47:33;;;;;;;6.30;3.17;;;563.30;1305.60;;;;;;5034345;28;20025;-79
2021/06/03 07:49:59;;;;;;;6.50;1.95;;;563.30;1305.60;;;;;;5034293;28;20457;-79
2021/06/03 07:52:24;;;;;;;3.55;1.40;;;563.30;1254.40;;;;;;5035843;28;20053;-81
2021/06/03 07:54:50;;;;;;;2.80;1.58;;;563.30;1254.40;;;;;;5034143;28;20057;-78
2021/06/03 07:57:16;;;;;;;3.10;1.45;;;563.30;1254.40;;;;;;5045673;28;20453;-78
2021/06/03 07:59:42;;;;;;;3.67;1.40;;;563.30;1254.40;;;;;;5054067;28;20028;-79
2021/06/03 08:02:07;;;;;;;4.65;2.53;;;563.40;1254.40;;;;;;5054539;28;20029;-79
2021/06/03 08:04:33;;;;;;;4.03;1.38;;;563.60;1254.40;;;;;;5054949;28;20488;-79
2021/06/03 08:06:59;;;;;;;6.68;1.67;;;563.60;1228.80;;;;;;5053824;28;20073;-79
2021/06/03 08:09:24;;;;;;;3.13;1.23;;;563.70;1228.80;;;;;;5054581;28;20374;-78
2021/06/03 08:11:50;;;;;;;7.85;2.03;;;563.90;1305.60;;;;;;5053478;28;20021;-77
2021/06/03 08:14:16;;;;;;;5.63;1.48;;;563.90;1228.80;;;;;;5054786;28;20029;-77
2021/06/03 08:16:41;;;;;;;6.50;1.95;;;563.90;1228.80;;;;;;5053335;28;20032;-77
2021/06/03 08:19:07;;;;;;;5.53;1.05;;;563.90;1228.80;;;;;;5054933;28;20047;-77
2021/06/03 08:21:36;;;;;;;2.53;1.55;;;564.00;1228.80;;;;;;5054689;28;20021;-78
2021/06/03 08:24:02;;;;;;;2.60;1.50;;;564.10;1228.80;;;;;;5054910;28;20025;-77
2021/06/03 08:26:28;;;;;;;2.88;1.10;;;564.10;1177.60;;;;;;5053295;28;20029;-78
2021/06/03 08:28:58;;;;;;;1.67;1.58;;;588.80;1177.60;;;;;;5054425;28;20017;-78
2021/06/03 08:31:26;;;;;;;3.58;1.25;;;588.80;1177.60;;;;;;5054156;28;20067;-77
2021/06/03 08:33:52;;;;;;;3.83;1.77;;;588.90;1152.00;;;;;;5054191;28;20170;-78
2021/06/03 08:36:18;;;;;;;1.00;1.00;;;588.90;1126.40;;;;;;5053112;28;20032;-77
2021/06/03 08:38:44;;;;;;;18.45;2.20;;;589.00;1177.60;;;;;;5053088;28;20021;-77
2021/06/03 08:41:10;;;;;;;8.63;1.52;;;589.00;1203.20;;;;;;5054398;28;20496;-77
2021/06/03 08:43:36;;;;;;;1.23;1.13;;;589.00;1177.60;;;;;;5054166;28;20031;-76
2021/06/03 08:46:03;;;;;;;17.95;4.32;;;589.20;1177.60;;;;;;5053927;28;20028;-78
2021/06/03 08:48:29;;;;;;;4.60;1.73;;;589.20;1152.00;;;;;;5052692;28;20382;-76
2021/06/03 08:51:00;;;;;;;4.32;1.60;;;589.30;1177.60;;;;;;5052562;28;20103;-77
2021/06/03 08:53:27;;;;;;;4.72;1.35;;;589.40;1177.60;;;;;;5051743;28;20412;-76
2021/06/03 08:58:38;;;;;;;5.55;1.40;;;589.50;1126.40;;;;;;5054307;28;20405;-77
2021/06/03 09:01:05;;;;;;;7.10;1.17;;;589.50;1126.40;;;;;;5053640;28;20017;-77
2021/06/03 09:03:33;;;;;;;6.57;1.52;;;589.50;1152.00;;;;;;5052368;28;20025;-76
2021/06/03 09:05:59;;;;;;;3.58;1.20;;;589.60;1152.00;;;;;;5052538;28;20477;-77
2021/06/03 09:08:28;;;;;;;3.97;1.50;;;589.70;1152.00;;;;;;5052161;28;20033;-77
2021/06/03 09:10:56;;;;;;;4.88;1.27;;;589.70;1126.40;;;;;;5053754;28;20021;-77
2021/06/03 09:13:42;;;;;;;2.92;1.50;;;589.70;1126.40;;;;;;5053713;28;20028;-77
2021/06/03 09:16:11;;;;;;;6.05;1.23;;;614.40;1100.80;;;;;;5052148;28;20583;-77
2021/06/03 09:18:51;;;;;;;2.75;1.60;;;614.50;1126.40;;;;;;5053540;28;20029;-76
2021/06/03 09:21:25;;;;;;;7.10;1.83;;;614.40;1075.20;;;;;;5052452;28;20057;-76
2021/06/03 09:24:13;;;;;;;4.03;1.45;;;614.50;1126.40;;;;;;5053537;28;20025;-77
2021/06/03 09:26:45;;;;;;;7.00;1.60;;;614.50;1126.40;;;;;;5052071;28;20028;-77
2021/06/03 09:29:13;;;;;;;6.00;1.35;;;614.60;1126.40;;;;;;5052951;28;20042;-76
2021/06/03 09:31:39;;;;;;;10.07;1.77;;;614.70;1152.00;;;;;;5052718;28;20029;-78
2021/06/03 09:34:09;;;;;;;1.83;1.40;;;614.80;1152.00;;;;;;5052435;28;20036;-77
2021/06/03 09:36:49;;;;;;;13.40;3.67;;;614.90;1126.40;;;;;;5052751;28;20104;-76
2021/06/03 09:39:19;;;;;;;5.28;2.25;;;615.00;1152.00;;;;;;5052129;28;20029;-77
2021/06/03 09:41:55;;;;;;;5.38;1.52;;;615.00;1126.40;;;;;;5052930;28;20067;-77
2021/06/03 09:44:26;;;;;;;3.15;1.83;;;615.00;1126.40;;;;;;5052889;28;20697;-77
2021/06/03 09:46:57;;;;;;;5.70;1.77;;;615.00;1100.80;;;;;;5052077;28;20033;-78
2021/06/03 09:49:24;;;;;;;;;;;615.20;1049.60;;;;;;5052465;28;20544;-78
2021/06/03 09:51:55;;;;;;;10.52;2.42;;;615.10;1075.20;;;;;;5053511;28;19912;-78
2021/06/03 09:54:22;;;;;;;3.70;1.90;;;615.10;1100.80;;;;;;5053421;28;20029;-78
2021/06/03 09:56:54;;;;;;;7.22;1.80;;;615.30;1100.80;;;;;;5053271;28;20025;-78
2021/06/03 09:59:26;;;;;;;2.25;1.40;;;640.00;1100.80;;;;;;5051685;28;20029;-80
2021/06/03 10:01:57;;;;;;;3.10;1.60;;;615.30;1075.20;;;;;;5053598;28;20021;-77
2021/06/03 10:04:29;;;;;;;3.20;1.45;;;615.10;1075.20;;;;;;5051842;28;20481;-78
2021/06/03 10:07:21;;;;;;;1.95;1.55;;;615.10;1075.20;;;;;;5051853;28;20071;-77
2021/06/03 10:09:59;;;;;;;4.65;1.42;;;615.20;1126.40;;;;;;5052947;28;20028;-78
2021/06/03 10:12:27;;;;;;;7.38;1.88;;;615.30;1075.20;;;;;;5052987;28;20029;-76
2021/06/03 10:15:01;;;;;;;13.30;2.40;;;615.30;1049.60;;;;;;5052601;28;20037;-77
2021/06/03 10:17:31;;;;;;;4.88;1.55;;;615.20;1049.60;;;;;;5051278;28;20555;-76
2021/06/03 10:20:00;;;;;;;6.88;1.73;;;615.20;1075.20;;;;;;5051702;28;20028;-78
2021/06/03 10:22:31;;;;;;;8.27;1.38;;;640.00;1049.60;;;;;;5053018;28;20033;-78
2021/06/03 10:25:01;;;;;;;2.35;1.17;;;640.00;1075.20;;;;;;5051717;28;20837;-78
2021/06/03 10:27:33;;;;;;;6.22;1.65;;;640.10;1075.20;;;;;;5052918;28;20053;-78
2021/06/03 10:30:01;;;;;;;3.67;1.48;;;640.00;1024.00;;;;;;5052540;28;20071;-77
2021/06/03 10:32:30;;;;;;;16.33;3.85;;;615.30;1024.00;;;;;;5052331;28;20168;-77
2021/06/03 10:34:56;;;;;;;2.08;1.92;;;615.30;1024.00;;;;;;5052950;28;20029;-78
2021/06/03 10:37:25;;;;;;;11.63;1.85;;;640.00;1049.60;;;;;;5051425;28;20481;-78
2021/06/03 10:39:52;;;;;;;5.60;2.22;;;640.10;1049.60;;;;;;5034883;28;20088;-78
2021/06/03 10:42:20;;;;;;;7.13;1.98;;;640.10;1075.20;;;;;;5052786;28;20507;-78
2021/06/03 10:44:49;;;;;;;3.17;1.35;;;640.10;1049.60;;;;;;5051187;28;20040;-77
2021/06/03 10:47:16;;;;;;;6.13;1.83;;;640.20;1075.20;;;;;;5051414;28;20067;-77
2021/06/03 10:49:43;;;;;;;12.75;2.47;;;640.40;1075.20;;;;;;5052554;28;20297;-77
2021/06/03 10:52:10;;;;;;;29.05;2.97;;;640.20;1075.20;;;;;;5052463;28;20029;-77
2021/06/03 10:54:46;;;;;;;5.72;1.30;;;640.10;1049.60;;;;;;5053562;28;20041;-77
2021/06/03 10:57:15;;;;;;;3.80;1.90;;;640.00;1049.60;;;;;;5056304;28;20104;-78
2021/06/03 10:59:41;;;;;;;3.50;1.95;;;640.20;1049.60;;;;;;5055196;28;20029;-77
2021/06/03 11:02:08;;;;;;;3.65;1.52;;;640.30;1075.20;;;;;;5056234;28;20424;-76
2021/06/03 11:04:37;;;;;;;4.88;1.27;;;640.50;1075.20;;;;;;5054954;28;20025;-78
2021/06/03 11:07:05;;;;;;;1.40;1.30;;;640.60;1100.80;;;;;;5054580;28;20029;-78
2021/06/03 11:09:37;;;;;;;2.92;1.30;;;640.80;1075.20;;;;;;5055082;28;20492;-78
2021/06/03 11:12:17;;;;;;;6.35;1.70;;;640.80;1075.20;;;;;;5054509;28;20482;-77
2021/06/03 11:15:10;;;;;;;4.60;1.52;;;640.60;1075.20;;;;;;5054463;28;20032;-78
2021/06/03 11:18:02;;;;;;;6.07;1.48;;;640.60;1049.60;;;;;;5054824;28;20021;-78
2021/06/03 11:20:52;;;;;;;8.02;2.13;;;640.40;1075.20;;;;;;5054848;28;20099;-78
2021/06/03 11:23:44;;;;;;;5.50;1.40;;;640.50;1049.60;;;;;;5055945;28;20025;-77
2021/06/03 11:26:42;;;;;;;5.95;2.60;;;640.60;1024.00;;;;;;5052809;28;20048;-77
2021/06/03 11:29:27;;;;;;;4.50;1.70;;;640.80;1075.20;;;;;;5054427;28;20067;-77
2021/06/03 11:32:04;;;;;;;8.75;2.17;;;640.80;1075.20;;;;;;5055558;28;20086;-78
2021/06/03 11:34:42;;;;;;;4.80;1.70;;;640.60;1024.00;;;;;;5054411;28;20029;-78
2021/06/03 11:37:09;;;;;;;7.03;1.70;;;640.40;1075.20;;;;;;5055556;28;20051;-78
2021/06/03 11:39:50;;;;;;;8.45;1.25;;;640.30;1049.60;;;;;;5054356;28;20025;-78
2021/06/03 11:42:27;;;;;;;3.28;1.80;;;640.40;1024.00;;;;;;5055007;28;20021;-77
2021/06/03 11:45:04;;;;;;;2.35;1.60;;;640.60;1075.20;;;;;;5054347;28;20123;-77
2021/06/03 11:47:37;;;;;;;5.95;1.52;;;640.40;1075.20;;;;;;5054535;28;20567;-77
2021/06/03 11:50:07;;;;;;;7.22;1.63;;;640.30;1075.20;;;;;;5055469;28;20025;-79
2021/06/03 11:52:33;;;;;;;11.48;2.70;;;640.20;1049.60;;;;;;5054007;28;20492;-78
2021/06/03 11:55:01;;;;;;;9.02;3.08;;;640.40;1075.20;;;;;;5055223;28;20155;-77
2021/06/03 11:57:29;;;;;;;5.18;1.92;;;640.30;1075.20;;;;;;5053819;28;20029;-77
2021/06/03 12:00:06;;;;;;;6.45;1.50;;;640.40;1049.60;;;;;;5053941;28;20025;-77
2021/06/03 12:02:34;;;;;;;3.08;1.38;;;640.60;1024.00;;;;;;5053926;28;20488;-77
2021/06/03 12:05:09;;;;;;;5.00;1.55;;;640.80;1049.60;;;;;;5054836;28;20489;-77
2021/06/03 12:07:54;;;;;;;5.70;1.52;;;665.60;1075.20;;;;;;5055117;28;20048;-77
2021/06/03 12:10:42;;;;;;;2.83;1.42;;;665.80;1075.20;;;;;;5053970;28;20025;-77
2021/06/03 12:13:20;;;;;;;10.68;1.40;;;665.90;1049.60;;;;;;5054183;28;20029;-77
2021/06/03 12:15:46;;;;;;;4.28;1.55;;;666.10;1075.20;;;;;;5053756;28;20111;-77
2021/06/03 12:18:13;;;;;;;5.63;1.27;;;666.20;1075.20;;;;;;5055014;28;20055;-77
2021/06/03 12:20:39;;;;;;;9.32;2.53;;;666.30;1024.00;;;;;;5053840;28;20025;-78
2021/06/03 12:23:07;;;;;;;2.10;1.27;;;666.50;972.80;;;;;;5054101;28;20512;-78
2021/06/03 12:25:41;;;;;;;7.93;2.33;;;666.40;921.60;;;;;;5053399;28;20583;-78
2021/06/03 12:28:10;;;;;;;4.75;1.13;;;666.20;998.40;;;;;;5055938;28;20033;-77
2021/06/03 12:30:38;;;;;;;1.33;1.17;;;666.10;998.40;;;;;;5055718;28;20029;-77